Time;durP1;ratioP1;P1;durP2;ratioP2;P2;SDS_P1;SDS_P2;PMS_P1;PMS_P2;Temp;Humidity;BMP_temperature;BMP_pressure;BME280_temperature;BME280_humidity;BME280_pressure;Samples;Min_cycle;Max_cycle;Signal;HPM_P1;HPM_P2
2021/04/06 00:00:01;;;;;;;35.85;5.13;;;;;;;;;;5073416;28;20039;-59
2021/04/06 00:02:29;;;;;;;29.08;4.65;;;;;;;;;;5072503;28;20486;-61
2021/04/06 00:04:59;;;;;;;28.85;4.82;;;;;;;;;;5076272;28;20041;-60
2021/04/06 00:07:26;;;;;;;34.45;4.57;;;;;;;;;;5074128;28;20054;-57
2021/04/06 00:09:59;;;;;;;20.83;4.32;;;;;;;;;;5074396;28;20029;-57
2021/04/06 00:12:27;;;;;;;36.22;5.97;;;;;;;;;;5080386;28;20034;-59
2021/04/06 00:14:55;;;;;;;18.58;3.95;;;;;;;;;;5078331;28;20013;-57
2021/04/06 00:17:23;;;;;;;25.13;4.38;;;;;;;;;;5073632;28;20032;-56
2021/04/06 00:19:52;;;;;;;35.72;5.40;;;;;;;;;;5073771;28;20089;-58
2021/04/06 00:22:20;;;;;;;33.92;4.90;;;;;;;;;;5073013;28;20020;-57
2021/04/06 00:24:49;;;;;;;40.10;5.10;;;;;;;;;;5073949;28;20451;-56
2021/04/06 00:27:16;;;;;;;27.92;4.38;;;;;;;;;;5072795;28;20043;-52
2021/04/06 00:29:44;;;;;;;31.40;4.72;;;;;;;;;;5078441;28;20418;-59
2021/04/06 00:32:13;;;;;;;27.85;4.65;;;;;;;;;;5081583;28;20012;-56
2021/04/06 00:34:41;;;;;;;25.23;5.28;;;;;;;;;;5080098;28;20016;-56
2021/04/06 00:37:14;;;;;;;25.63;4.70;;;;;;;;;;5073870;28;20020;-58
2021/04/06 00:39:41;;;;;;;25.73;4.30;;;;;;;;;;5075716;28;20017;-59
2021/04/06 00:42:17;;;;;;;26.77;4.50;;;;;;;;;;5073739;28;20380;-56
2021/04/06 00:44:49;;;;;;;22.40;4.53;;;;;;;;;;5074217;28;20464;-57
2021/04/06 00:47:16;;;;;;;25.52;4.97;;;;;;;;;;5073788;28;20047;-57
2021/04/06 00:49:44;;;;;;;23.80;4.88;;;;;;;;;;5077705;28;20031;-58
2021/04/06 00:52:11;;;;;;;29.23;5.45;;;;;;;;;;5073683;28;20392;-57
2021/04/06 00:54:38;;;;;;;21.85;4.35;;;;;;;;;;5072797;28;20040;-56
2021/04/06 00:57:09;;;;;;;30.08;4.60;;;;;;;;;;5070111;28;20032;-54
2021/04/06 00:59:36;;;;;;;19.77;4.60;;;;;;;;;;5081168;28;20043;-57
2021/04/06 01:02:05;;;;;;;25.17;4.28;;;;;;;;;;5073999;28;20547;-58
2021/04/06 01:04:39;;;;;;;26.52;4.05;;;;;;;;;;5076531;28;20023;-58
2021/04/06 01:07:12;;;;;;;24.20;4.47;;;;;;;;;;5073789;28;20033;-57
2021/04/06 01:09:42;;;;;;;22.08;3.88;;;;;;;;;;5073293;28;20095;-56
2021/04/06 01:12:10;;;;;;;22.85;4.18;;;;;;;;;;5072694;28;20479;-57
2021/04/06 01:14:39;;;;;;;16.42;4.00;;;;;;;;;;5074976;28;20067;-59
2021/04/06 01:17:07;;;;;;;24.50;3.90;;;;;;;;;;5071432;28;20023;-61
2021/04/06 01:19:35;;;;;;;23.45;3.78;;;;;;;;;;5071597;28;20534;-59
2021/04/06 01:22:05;;;;;;;27.85;3.60;;;;;;;;;;5071068;28;20024;-59
2021/04/06 01:24:32;;;;;;;21.92;3.58;;;;;;;;;;5073007;28;20483;-58
2021/04/06 01:27:01;;;;;;;20.60;3.95;;;;;;;;;;5072362;28;20468;-55
2021/04/06 01:29:28;;;;;;;23.95;3.72;;;;;;;;;;5086327;28;20028;-57
2021/04/06 01:31:57;;;;;;;31.02;4.53;;;;;;;;;;5082763;28;20442;-58
2021/04/06 01:34:24;;;;;;;18.90;3.35;;;;;;;;;;5072372;28;20055;-58
2021/04/06 01:36:53;;;;;;;15.77;3.97;;;;;;;;;;5072189;28;20051;-59
2021/04/06 01:39:22;;;;;;;19.83;3.60;;;;;;;;;;5073784;28;20032;-58
2021/04/06 01:41:51;;;;;;;24.88;3.88;;;;;;;;;;5073060;28;20391;-58
2021/04/06 01:44:18;;;;;;;20.60;3.55;;;;;;;;;;5079422;28;20012;-58
2021/04/06 01:46:47;;;;;;;24.65;3.63;;;;;;;;;;5083073;28;20505;-57
2021/04/06 01:49:14;;;;;;;16.55;3.70;;;;;;;;;;5076738;28;20119;-56
2021/04/06 01:51:42;;;;;;;17.67;3.60;;;;;;;;;;5082330;28;20024;-56
2021/04/06 01:54:12;;;;;;;15.88;3.08;;;;;;;;;;5072137;28;20032;-55
2021/04/06 01:56:47;;;;;;;17.63;3.60;;;;;;;;;;5072506;28;20020;-58
2021/04/06 01:59:18;;;;;;;20.42;3.50;;;;;;;;;;5092052;28;20433;-56
2021/04/06 02:01:52;;;;;;;12.63;3.38;;;;;;;;;;5093326;28;20024;-57
2021/04/06 02:04:20;;;;;;;18.17;3.53;;;;;;;;;;5091670;28;20448;-57
2021/04/06 02:06:48;;;;;;;21.35;3.00;;;;;;;;;;5090252;28;20074;-57
2021/04/06 02:09:15;;;;;;;17.95;3.28;;;;;;;;;;5080613;28;20907;-57
2021/04/06 02:11:42;;;;;;;14.23;3.28;;;;;;;;;;5082361;28;20033;-57
2021/04/06 02:14:14;;;;;;;17.15;3.15;;;;;;;;;;5080332;28;20526;-57
2021/04/06 02:16:44;;;;;;;21.10;3.63;;;;;;;;;;5077993;28;20048;-57
2021/04/06 02:19:19;;;;;;;16.63;3.35;;;;;;;;;;5088957;28;21153;-58
2021/04/06 02:21:54;;;;;;;12.70;3.00;;;;;;;;;;5091953;28;20024;-57
2021/04/06 02:24:41;;;;;;;13.57;3.20;;;;;;;;;;5092621;28;20024;-58
2021/04/06 02:27:21;;;;;;;13.88;2.78;;;;;;;;;;5092485;28;20402;-57
2021/04/06 02:29:49;;;;;;;10.48;2.72;;;;;;;;;;5092578;28;20024;-57
2021/04/06 02:32:21;;;;;;;14.40;3.30;;;;;;;;;;5092802;28;20020;-57
2021/04/06 02:34:52;;;;;;;13.20;2.80;;;;;;;;;;5092324;28;20091;-58
2021/04/06 02:37:26;;;;;;;12.88;2.90;;;;;;;;;;5092965;28;20012;-57
2021/04/06 02:39:54;;;;;;;15.60;3.00;;;;;;;;;;5092477;28;20024;-57
2021/04/06 02:42:24;;;;;;;12.02;2.72;;;;;;;;;;5092586;28;20434;-58
2021/04/06 02:45:11;;;;;;;7.00;2.33;;;;;;;;;;5091896;28;20032;-58
2021/04/06 02:47:43;;;;;;;7.63;2.38;;;;;;;;;;5092439;28;20024;-58
2021/04/06 02:50:11;;;;;;;11.60;2.70;;;;;;;;;;5092351;28;20542;-58
2021/04/06 02:52:39;;;;;;;11.65;2.75;;;;;;;;;;5092527;28;20020;-58
2021/04/06 02:55:07;;;;;;;11.30;2.38;;;;;;;;;;5091826;28;20028;-57
2021/04/06 02:57:34;;;;;;;11.70;2.30;;;;;;;;;;5092486;28;20050;-57
2021/04/06 03:00:01;;;;;;;21.40;2.72;;;;;;;;;;5091924;28;20024;-57
2021/04/06 03:02:38;;;;;;;8.23;2.00;;;;;;;;;;5092321;28;20107;-58
2021/04/06 03:05:05;;;;;;;11.30;2.15;;;;;;;;;;5091387;28;20495;-57
2021/04/06 03:07:32;;;;;;;9.05;1.92;;;;;;;;;;5092340;28;20065;-57
2021/04/06 03:10:00;;;;;;;8.30;2.28;;;;;;;;;;5092172;28;20012;-57
2021/04/06 03:12:29;;;;;;;7.95;2.17;;;;;;;;;;5091820;28;20027;-58
2021/04/06 03:14:56;;;;;;;12.77;2.55;;;;;;;;;;5090940;28;20028;-58
2021/04/06 03:17:24;;;;;;;8.57;1.90;;;;;;;;;;5091608;28;20053;-57
2021/04/06 03:19:58;;;;;;;7.40;1.90;;;;;;;;;;5092456;28;20023;-57
2021/04/06 03:22:29;;;;;;;7.85;2.20;;;;;;;;;;5090889;28;20403;-58
2021/04/06 03:24:56;;;;;;;12.60;2.92;;;;;;;;;;5092081;28;20020;-57
2021/04/06 03:27:30;;;;;;;6.88;1.83;;;;;;;;;;5091374;28;20020;-57
2021/04/06 03:30:01;;;;;;;11.25;1.90;;;;;;;;;;5091869;28;20024;-58
2021/04/06 03:32:28;;;;;;;7.95;1.70;;;;;;;;;;5091628;28;20024;-59
2021/04/06 03:34:55;;;;;;;7.57;1.95;;;;;;;;;;5091824;28;20020;-59
2021/04/06 03:37:22;;;;;;;9.95;2.25;;;;;;;;;;5091317;28;20032;-57
2021/04/06 03:39:49;;;;;;;9.95;1.60;;;;;;;;;;5091815;28;20568;-59
2021/04/06 03:42:23;;;;;;;8.55;2.00;;;;;;;;;;5091615;28;20532;-58
2021/04/06 03:44:50;;;;;;;13.25;1.90;;;;;;;;;;5091665;28;20498;-58
2021/04/06 03:47:17;;;;;;;9.32;1.67;;;;;;;;;;5091372;28;20119;-57
2021/04/06 03:49:48;;;;;;;9.18;2.00;;;;;;;;;;5091852;28;20025;-57
2021/04/06 03:52:16;;;;;;;7.85;2.20;;;;;;;;;;5091280;28;20012;-57
2021/04/06 03:54:48;;;;;;;10.02;1.85;;;;;;;;;;5091299;28;20078;-57
2021/04/06 03:59:58;;;;;;;7.32;1.80;;;;;;;;;;5091606;28;20032;-57
2021/04/06 04:02:26;;;;;;;9.52;2.42;;;;;;;;;;5091184;28;20054;-57
2021/04/06 04:04:57;;;;;;;13.27;1.90;;;;;;;;;;5091101;28;20052;-57
2021/04/06 04:07:24;;;;;;;12.27;2.42;;;;;;;;;;5091351;28;20028;-56
2021/04/06 04:09:51;;;;;;;6.30;1.88;;;;;;;;;;5091558;28;20074;-57
2021/04/06 04:12:18;;;;;;;8.80;1.67;;;;;;;;;;5091669;28;20426;-57
2021/04/06 04:14:46;;;;;;;11.43;1.83;;;;;;;;;;5091095;28;20035;-58
2021/04/06 04:17:13;;;;;;;6.60;1.67;;;;;;;;;;5091535;28;20488;-58
2021/04/06 04:19:40;;;;;;;8.88;1.80;;;;;;;;;;5091054;28;20024;-57
2021/04/06 04:22:07;;;;;;;14.95;2.30;;;;;;;;;;5090104;28;20024;-57
2021/04/06 04:24:34;;;;;;;10.20;1.80;;;;;;;;;;5090911;28;20142;-57
2021/04/06 04:27:01;;;;;;;7.82;1.75;;;;;;;;;;5091307;28;20540;-58
2021/04/06 04:29:28;;;;;;;6.32;1.80;;;;;;;;;;5090919;28;20036;-57
2021/04/06 04:31:55;;;;;;;12.70;2.17;;;;;;;;;;5091585;28;20020;-57
2021/04/06 04:34:22;;;;;;;11.40;2.00;;;;;;;;;;5094302;28;20491;-56
2021/04/06 04:36:49;;;;;;;9.13;1.80;;;;;;;;;;5094899;28;20490;-57
2021/04/06 04:39:16;;;;;;;7.50;1.98;;;;;;;;;;5094674;28;20103;-57
2021/04/06 04:41:43;;;;;;;9.23;2.28;;;;;;;;;;5095122;28;20020;-57
2021/04/06 04:44:10;;;;;;;8.65;2.13;;;;;;;;;;5093399;28;20047;-56
2021/04/06 04:46:38;;;;;;;7.53;1.98;;;;;;;;;;5094761;28;20031;-56
2021/04/06 04:49:05;;;;;;;8.95;1.50;;;;;;;;;;5094735;28;20479;-57
2021/04/06 04:51:32;;;;;;;10.45;1.98;;;;;;;;;;5094310;28;20376;-57
2021/04/06 04:53:59;;;;;;;11.38;2.13;;;;;;;;;;5095093;28;20056;-56
2021/04/06 04:56:26;;;;;;;12.50;1.92;;;;;;;;;;5094063;28;20023;-57
2021/04/06 04:58:53;;;;;;;14.43;1.88;;;;;;;;;;5094672;28;20412;-57
2021/04/06 05:01:20;;;;;;;8.98;1.83;;;;;;;;;;5094161;28;20035;-57
2021/04/06 05:03:48;;;;;;;10.07;2.13;;;;;;;;;;5094672;28;20016;-57
2021/04/06 05:06:15;;;;;;;19.85;2.65;;;;;;;;;;5093689;28;20126;-58
2021/04/06 05:08:42;;;;;;;12.10;2.67;;;;;;;;;;5094609;28;20036;-57
2021/04/06 05:11:10;;;;;;;8.32;1.90;;;;;;;;;;5094237;28;20044;-57
2021/04/06 05:13:37;;;;;;;12.55;2.17;;;;;;;;;;5094371;28;20092;-58
2021/04/06 05:16:04;;;;;;;10.90;2.33;;;;;;;;;;5093581;28;20103;-57
2021/04/06 05:18:31;;;;;;;9.85;2.33;;;;;;;;;;5094406;28;20020;-58
2021/04/06 05:20:58;;;;;;;12.65;2.08;;;;;;;;;;5093631;28;20031;-57
2021/04/06 05:23:25;;;;;;;10.40;2.25;;;;;;;;;;5094088;28;20050;-57
2021/04/06 05:25:52;;;;;;;9.35;2.15;;;;;;;;;;5093694;28;20027;-57
2021/04/06 05:28:19;;;;;;;13.57;2.20;;;;;;;;;;5094149;28;20085;-58
2021/04/06 05:30:46;;;;;;;10.88;2.53;;;;;;;;;;5093635;28;20099;-56
2021/04/06 05:33:13;;;;;;;8.23;1.98;;;;;;;;;;5093843;28;20107;-57
2021/04/06 05:35:40;;;;;;;11.02;2.05;;;;;;;;;;5093930;28;20020;-57
2021/04/06 05:38:07;;;;;;;14.27;2.38;;;;;;;;;;5093456;28;20391;-57
2021/04/06 05:40:34;;;;;;;14.95;2.35;;;;;;;;;;5094136;28;20025;-57
2021/04/06 05:43:03;;;;;;;14.27;2.17;;;;;;;;;;5093509;28;20422;-57
2021/04/06 05:45:34;;;;;;;14.13;2.33;;;;;;;;;;5092713;28;20476;-57
2021/04/06 05:48:03;;;;;;;11.52;2.05;;;;;;;;;;5093130;28;20090;-58
2021/04/06 05:50:30;;;;;;;8.27;1.63;;;;;;;;;;5093444;28;20051;-57
2021/04/06 05:52:57;;;;;;;9.40;2.13;;;;;;;;;;5093331;28;20503;-58
2021/04/06 05:55:24;;;;;;;13.25;2.53;;;;;;;;;;5093792;28;20012;-57
2021/04/06 05:57:56;;;;;;;13.70;2.55;;;;;;;;;;5092681;28;20024;-57
2021/04/06 06:00:24;;;;;;;11.38;2.10;;;;;;;;;;5093349;28;20023;-57
2021/04/06 06:02:52;;;;;;;12.40;2.15;;;;;;;;;;5092998;28;20034;-57
2021/04/06 06:05:19;;;;;;;14.43;2.00;;;;;;;;;;5093629;28;20074;-59
2021/04/06 06:07:46;;;;;;;11.93;1.88;;;;;;;;;;5092575;28;20550;-57
2021/04/06 06:10:30;;;;;;;9.77;2.45;;;;;;;;;;5093660;28;20032;-57
2021/04/06 06:13:14;;;;;;;12.73;2.05;;;;;;;;;;5092899;28;20020;-57
2021/04/06 06:15:42;;;;;;;8.77;2.03;;;;;;;;;;5092135;28;20078;-56
2021/04/06 06:18:09;;;;;;;10.07;2.25;;;;;;;;;;5092750;28;20035;-56
2021/04/06 06:20:37;;;;;;;11.00;2.00;;;;;;;;;;5093017;28;20020;-56
2021/04/06 06:23:23;;;;;;;8.70;2.50;;;;;;;;;;5092949;28;20099;-57
2021/04/06 06:26:08;;;;;;;15.38;3.08;;;;;;;;;;5092799;28;20021;-56
2021/04/06 06:28:36;;;;;;;13.80;2.63;;;;;;;;;;5092060;28;20533;-57
2021/04/06 06:31:06;;;;;;;7.70;1.88;;;;;;;;;;5092801;28;20016;-57
2021/04/06 06:33:35;;;;;;;10.70;2.67;;;;;;;;;;5092736;28;20028;-58
2021/04/06 06:36:02;;;;;;;14.52;2.28;;;;;;;;;;5092290;28;20487;-57
2021/04/06 06:38:29;;;;;;;13.05;2.35;;;;;;;;;;5092710;28;20076;-57
2021/04/06 06:40:57;;;;;;;12.73;2.08;;;;;;;;;;5092210;28;20486;-58
2021/04/06 06:43:26;;;;;;;18.75;2.40;;;;;;;;;;5092716;28;20024;-57
2021/04/06 06:45:53;;;;;;;6.88;1.95;;;;;;;;;;5092387;28;20339;-57
2021/04/06 06:48:26;;;;;;;10.25;2.15;;;;;;;;;;5092422;28;20569;-57
2021/04/06 06:50:54;;;;;;;12.50;2.15;;;;;;;;;;5092190;28;20019;-57
2021/04/06 06:53:37;;;;;;;16.15;2.47;;;;;;;;;;5092459;28;20024;-57
2021/04/06 06:56:05;;;;;;;8.80;2.40;;;;;;;;;;5091830;28;20428;-58
2021/04/06 06:58:36;;;;;;;11.07;2.40;;;;;;;;;;5091005;28;20410;-57
2021/04/06 07:01:04;;;;;;;13.13;2.20;;;;;;;;;;5091994;28;20356;-57
2021/04/06 07:03:31;;;;;;;14.25;2.10;;;;;;;;;;5092215;28;20479;-57
2021/04/06 07:06:18;;;;;;;11.70;1.83;;;;;;;;;;5091896;28;20501;-57
2021/04/06 07:08:47;;;;;;;11.48;2.28;;;;;;;;;;5091963;28;20856;-56
2021/04/06 07:11:16;;;;;;;12.35;1.88;;;;;;;;;;5091919;28;20024;-57
2021/04/06 07:13:45;;;;;;;10.38;2.33;;;;;;;;;;5092043;28;20024;-56
2021/04/06 07:16:16;;;;;;;6.85;2.10;;;;;;;;;;5091654;28;20024;-57
2021/04/06 07:18:48;;;;;;;11.48;2.60;;;;;;;;;;5092133;28;20103;-57
2021/04/06 07:21:17;;;;;;;9.95;2.33;;;;;;;;;;5091672;28;20360;-57
2021/04/06 07:23:56;;;;;;;7.78;2.33;;;;;;;;;;5091936;28;20024;-57
2021/04/06 07:26:25;;;;;;;11.30;1.98;;;;;;;;;;5091503;28;20052;-57
2021/04/06 07:28:52;;;;;;;12.95;2.55;;;;;;;;;;5091805;28;20040;-57
2021/04/06 07:31:19;;;;;;;11.93;2.25;;;;;;;;;;5091465;28;20073;-56
2021/04/06 07:33:48;;;;;;;11.68;2.45;;;;;;;;;;5091898;28;20078;-57
2021/04/06 07:36:20;;;;;;;12.35;3.00;;;;;;;;;;5092068;28;20012;-57
2021/04/06 07:38:47;;;;;;;14.45;2.33;;;;;;;;;;5091358;28;20535;-58
2021/04/06 07:41:15;;;;;;;10.23;1.90;;;;;;;;;;5091913;28;20039;-57
2021/04/06 07:43:43;;;;;;;17.42;2.47;;;;;;;;;;5091176;28;20020;-57
2021/04/06 07:46:10;;;;;;;10.18;2.45;;;;;;;;;;5091822;28;20073;-57
2021/04/06 07:48:41;;;;;;;8.10;2.00;;;;;;;;;;5091027;28;20032;-55
2021/04/06 07:51:25;;;;;;;11.18;2.35;;;;;;;;;;5091577;28;20020;-57
2021/04/06 07:53:56;;;;;;;8.38;2.13;;;;;;;;;;5091331;28;20421;-57
2021/04/06 07:56:56;;;;;;;8.80;2.00;;;;;;;;;;5091899;28;20024;-57
2021/04/06 07:59:26;;;;;;;9.85;1.98;;;;;;;;;;5078748;28;20400;-57
2021/04/06 08:01:53;;;;;;;10.88;2.25;;;;;;;;;;5091795;28;20020;-57
2021/04/06 08:04:24;;;;;;;8.73;2.63;;;;;;;;;;5091196;28;20020;-57
2021/04/06 08:06:53;;;;;;;12.13;2.38;;;;;;;;;;5091529;28;20036;-56
2021/04/06 08:09:32;;;;;;;12.65;2.50;;;;;;;;;;5094132;28;20089;-57
2021/04/06 08:12:19;;;;;;;19.02;2.60;;;;;;;;;;5095901;28;20031;-57
2021/04/06 08:14:49;;;;;;;13.20;2.30;;;;;;;;;;5095275;28;20430;-57
2021/04/06 08:17:25;;;;;;;12.43;2.58;;;;;;;;;;5095698;28;20115;-57
2021/04/06 08:19:54;;;;;;;13.07;2.55;;;;;;;;;;5094747;28;20542;-57
2021/04/06 08:22:26;;;;;;;14.27;2.38;;;;;;;;;;5095465;28;20071;-57
2021/04/06 08:24:53;;;;;;;10.13;2.22;;;;;;;;;;5094950;28;20488;-57
2021/04/06 08:27:36;;;;;;;8.75;2.80;;;;;;;;;;5095423;28;20102;-58
2021/04/06 08:30:27;;;;;;;12.20;2.30;;;;;;;;;;5094303;28;20722;-57
2021/04/06 08:32:57;;;;;;;9.15;2.33;;;;;;;;;;5095435;28;20072;-57
2021/04/06 08:35:42;;;;;;;7.10;2.05;;;;;;;;;;5094438;28;20138;-58
2021/04/06 08:38:32;;;;;;;14.70;2.72;;;;;;;;;;5095110;28;20107;-58
2021/04/06 08:41:00;;;;;;;9.68;1.80;;;;;;;;;;5094533;28;20055;-58
2021/04/06 08:43:27;;;;;;;14.27;2.75;;;;;;;;;;5095178;28;20016;-57
2021/04/06 08:46:01;;;;;;;10.68;2.40;;;;;;;;;;5094631;28;20031;-57
2021/04/06 08:48:46;;;;;;;8.18;2.20;;;;;;;;;;5095001;28;20428;-58
2021/04/06 08:51:21;;;;;;;11.43;2.47;;;;;;;;;;5094409;28;20613;-57
2021/04/06 08:53:49;;;;;;;9.02;2.30;;;;;;;;;;5094815;28;20027;-57
2021/04/06 08:56:17;;;;;;;16.42;2.60;;;;;;;;;;5094321;28;20103;-57
2021/04/06 08:58:44;;;;;;;10.65;2.40;;;;;;;;;;5094773;28;20020;-58
2021/04/06 09:01:11;;;;;;;13.93;2.40;;;;;;;;;;5093884;28;20036;-56
2021/04/06 09:03:39;;;;;;;12.30;2.70;;;;;;;;;;5094692;28;20047;-57
2021/04/06 09:06:13;;;;;;;9.50;2.08;;;;;;;;;;5094231;28;20044;-57
2021/04/06 09:08:56;;;;;;;8.00;2.20;;;;;;;;;;5094571;28;20035;-57
2021/04/06 09:11:26;;;;;;;14.02;1.98;;;;;;;;;;5093894;28;20028;-56
2021/04/06 09:13:54;;;;;;;10.40;2.17;;;;;;;;;;5094466;28;20052;-57
2021/04/06 09:16:24;;;;;;;12.48;2.47;;;;;;;;;;5092741;28;20104;-57
2021/04/06 09:18:59;;;;;;;13.02;2.40;;;;;;;;;;5093490;28;20024;-57
2021/04/06 09:21:27;;;;;;;10.77;2.08;;;;;;;;;;5093277;28;20050;-57
2021/04/06 09:23:54;;;;;;;8.80;2.38;;;;;;;;;;5092816;28;20487;-56
2021/04/06 09:26:22;;;;;;;9.27;1.90;;;;;;;;;;5094120;28;20058;-58
2021/04/06 09:28:59;;;;;;;11.52;2.30;;;;;;;;;;5093805;28;20107;-56
2021/04/06 09:31:29;;;;;;;11.70;2.15;;;;;;;;;;5093445;28;20024;-56
2021/04/06 09:34:11;;;;;;;9.35;2.42;;;;;;;;;;5087559;28;20498;-56
2021/04/06 09:36:39;;;;;;;8.68;2.65;;;;;;;;;;5090504;28;20079;-56
2021/04/06 09:39:07;;;;;;;10.52;2.60;;;;;;;;;;5082158;28;20024;-57
2021/04/06 09:41:36;;;;;;;11.38;2.53;;;;;;;;;;5082599;28;20035;-56
2021/04/06 09:44:06;;;;;;;5.38;2.13;;;;;;;;;;5083742;28;20107;-56
2021/04/06 09:46:44;;;;;;;11.18;2.20;;;;;;;;;;5083268;28;20009;-56
2021/04/06 09:49:12;;;;;;;13.30;2.80;;;;;;;;;;5081008;28;20043;-57
2021/04/06 09:51:40;;;;;;;9.75;1.95;;;;;;;;;;5084850;28;20059;-57
2021/04/06 09:54:07;;;;;;;10.93;2.13;;;;;;;;;;5093134;28;20103;-58
2021/04/06 09:56:36;;;;;;;9.77;2.47;;;;;;;;;;5093906;28;20020;-58
2021/04/06 09:59:04;;;;;;;12.45;2.47;;;;;;;;;;5093897;28;20035;-56
2021/04/06 10:01:32;;;;;;;10.65;2.83;;;;;;;;;;5093744;28;20024;-57
2021/04/06 10:04:00;;;;;;;13.60;2.35;;;;;;;;;;5093804;28;20093;-58
2021/04/06 10:06:53;;;;;;;7.72;1.90;;;;;;;;;;5093622;28;20069;-59
2021/04/06 10:09:33;;;;;;;7.10;2.05;;;;;;;;;;5092539;28;20503;-58
2021/04/06 10:12:00;;;;;;;10.20;2.58;;;;;;;;;;5093763;28;20020;-58
2021/04/06 10:14:27;;;;;;;8.55;2.40;;;;;;;;;;5093543;28;20071;-57
2021/04/06 10:16:58;;;;;;;10.43;2.72;;;;;;;;;;5093617;28;20073;-57
2021/04/06 10:19:26;;;;;;;10.23;2.50;;;;;;;;;;5093565;28;20383;-57
2021/04/06 10:21:59;;;;;;;6.30;2.10;;;;;;;;;;5093450;28;20035;-56
2021/04/06 10:24:28;;;;;;;10.02;2.13;;;;;;;;;;5092204;28;20121;-57
2021/04/06 10:27:11;;;;;;;9.63;2.25;;;;;;;;;;5093241;28;20020;-57
2021/04/06 10:29:38;;;;;;;8.35;2.17;;;;;;;;;;5093287;28;20068;-59
2021/04/06 10:32:06;;;;;;;11.55;2.33;;;;;;;;;;5093060;28;20106;-58
2021/04/06 10:34:33;;;;;;;9.85;2.38;;;;;;;;;;5093234;28;20383;-58
2021/04/06 10:37:02;;;;;;;7.05;1.92;;;;;;;;;;5093218;28;20012;-57
2021/04/06 10:39:36;;;;;;;7.93;2.47;;;;;;;;;;5093120;28;20104;-58
2021/04/06 10:42:04;;;;;;;9.32;2.42;;;;;;;;;;5096374;28;20019;-57
2021/04/06 10:44:31;;;;;;;10.80;2.17;;;;;;;;;;5089454;28;20028;-57
2021/04/06 10:46:59;;;;;;;7.82;2.30;;;;;;;;;;5083088;28;20021;-56
2021/04/06 10:49:26;;;;;;;7.55;2.15;;;;;;;;;;5072526;28;20068;-58
2021/04/06 10:51:54;;;;;;;18.52;2.50;;;;;;;;;;5077177;28;20475;-57
2021/04/06 10:54:21;;;;;;;20.92;3.28;;;;;;;;;;5092724;28;20032;-58
2021/04/06 10:56:48;;;;;;;12.98;2.55;;;;;;;;;;5093094;28;20536;-58
2021/04/06 10:59:25;;;;;;;13.20;3.00;;;;;;;;;;5092701;28;20032;-57
2021/04/06 11:01:53;;;;;;;13.73;2.80;;;;;;;;;;5092794;28;20047;-57
2021/04/06 11:04:20;;;;;;;17.20;3.55;;;;;;;;;;5091609;28;20111;-58
2021/04/06 11:07:00;;;;;;;13.90;2.50;;;;;;;;;;5092130;28;20048;-59
2021/04/06 11:09:33;;;;;;;16.75;3.20;;;;;;;;;;5092756;28;20040;-58
2021/04/06 11:12:03;;;;;;;16.60;3.25;;;;;;;;;;5092255;28;20040;-60
2021/04/06 11:14:31;;;;;;;15.52;3.30;;;;;;;;;;5092704;28;20535;-60
2021/04/06 11:17:00;;;;;;;34.25;3.70;;;;;;;;;;5092665;28;20032;-62
2021/04/06 11:19:29;;;;;;;16.40;3.03;;;;;;;;;;5092378;28;20020;-60
2021/04/06 11:21:57;;;;;;;19.80;3.65;;;;;;;;;;5092414;28;20543;-65
2021/04/06 11:24:26;;;;;;;290.63;21.88;;;;;;;;;;5092553;28;20437;-59
2021/04/06 11:26:54;;;;;;;35.20;4.50;;;;;;;;;;5092421;28;20028;-59
2021/04/06 11:29:23;;;;;;;39.80;4.63;;;;;;;;;;5091946;28;20679;-59
2021/04/06 11:31:51;;;;;;;32.00;4.63;;;;;;;;;;5092396;28;20020;-59
2021/04/06 11:34:18;;;;;;;31.17;4.72;;;;;;;;;;5092307;28;20527;-55
2021/04/06 11:36:46;;;;;;;17.63;3.80;;;;;;;;;;5092364;28;20113;-55
2021/04/06 11:39:14;;;;;;;19.13;3.47;;;;;;;;;;5092270;28;20028;-56
2021/04/06 11:41:43;;;;;;;15.15;3.22;;;;;;;;;;5092031;28;20111;-55
2021/04/06 11:44:11;;;;;;;15.02;3.05;;;;;;;;;;5091709;28;20135;-54
2021/04/06 11:46:38;;;;;;;21.17;2.92;;;;;;;;;;5092007;28;20069;-56
2021/04/06 11:49:06;;;;;;;66.40;6.25;;;;;;;;;;5092108;28;20115;-56
2021/04/06 11:51:33;;;;;;;37.35;4.35;;;;;;;;;;5092085;28;20028;-55
2021/04/06 11:54:01;;;;;;;36.30;3.42;;;;;;;;;;5085497;28;20364;-56
2021/04/06 11:56:28;;;;;;;55.78;6.53;;;;;;;;;;5080085;28;20097;-63
2021/04/06 11:58:55;;;;;;;69.10;8.85;;;;;;;;;;5079960;28;20065;-63
2021/04/06 12:01:22;;;;;;;72.10;8.95;;;;;;;;;;5087023;28;20024;-61
2021/04/06 12:03:49;;;;;;;61.42;6.68;;;;;;;;;;5086951;28;20031;-66
2021/04/06 12:06:16;;;;;;;37.60;5.57;;;;;;;;;;5090934;28;20044;-62
2021/04/06 12:08:43;;;;;;;35.50;5.15;;;;;;;;;;5089036;28;20040;-74
2021/04/06 12:11:10;;;;;;;33.92;4.13;;;;;;;;;;5090363;28;20395;-60
2021/04/06 12:13:37;;;;;;;30.83;3.85;;;;;;;;;;5085328;28;20048;-66
2021/04/06 12:16:05;;;;;;;30.30;3.72;;;;;;;;;;5079114;28;20484;-52
2021/04/06 12:18:32;;;;;;;21.45;3.78;;;;;;;;;;5069764;28;20074;-56
2021/04/06 12:20:59;;;;;;;17.33;3.70;;;;;;;;;;5080629;28;20391;-52
2021/04/06 12:23:26;;;;;;;23.23;3.38;;;;;;;;;;5080727;28;20044;-55
2021/04/06 12:25:56;;;;;;;22.67;4.15;;;;;;;;;;5088166;28;20013;-50
2021/04/06 12:28:23;;;;;;;14.10;2.80;;;;;;;;;;5091611;28;20479;-55
2021/04/06 12:30:51;;;;;;;15.98;2.92;;;;;;;;;;5089573;28;20036;-55
2021/04/06 12:33:18;;;;;;;15.38;2.55;;;;;;;;;;5090386;28;20111;-56
2021/04/06 12:35:45;;;;;;;15.90;2.90;;;;;;;;;;5090661;28;20043;-53
2021/04/06 12:38:12;;;;;;;17.35;2.95;;;;;;;;;;5091442;28;20452;-59
2021/04/06 12:40:39;;;;;;;13.15;2.75;;;;;;;;;;5091004;28;20042;-54
2021/04/06 12:43:06;;;;;;;10.73;1.80;;;;;;;;;;5088433;28;20020;-54
2021/04/06 12:45:33;;;;;;;15.35;2.40;;;;;;;;;;5090073;28;20394;-55
2021/04/06 12:48:00;;;;;;;14.50;2.70;;;;;;;;;;5090436;28;20027;-56
2021/04/06 12:50:27;;;;;;;12.60;2.58;;;;;;;;;;5090248;28;20024;-54
2021/04/06 12:52:55;;;;;;;15.18;2.63;;;;;;;;;;5089865;28;20004;-53
2021/04/06 12:55:22;;;;;;;10.85;2.22;;;;;;;;;;5085354;28;20032;-59
2021/04/06 12:57:49;;;;;;;12.15;2.17;;;;;;;;;;5079381;28;20024;-50
2021/04/06 13:00:17;;;;;;;19.02;2.15;;;;;;;;;;5073806;28;20542;-48
2021/04/06 13:02:44;;;;;;;18.40;2.50;;;;;;;;;;5074312;28;20024;-50
2021/04/06 13:05:13;;;;;;;9.85;2.50;;;;;;;;;;5075861;28;20094;-51
2021/04/06 13:07:40;;;;;;;11.40;2.10;;;;;;;;;;5071319;28;20040;-49
2021/04/06 13:10:07;;;;;;;12.27;1.83;;;;;;;;;;5073455;28;20383;-60
2021/04/06 13:12:34;;;;;;;10.65;1.70;;;;;;;;;;5074607;28;20405;-60
2021/04/06 13:15:01;;;;;;;12.38;2.38;;;;;;;;;;5074384;28;20549;-57
2021/04/06 13:17:28;;;;;;;8.63;2.03;;;;;;;;;;5073096;28;20503;-56
2021/04/06 13:19:55;;;;;;;16.38;2.22;;;;;;;;;;5072139;28;20025;-55
2021/04/06 13:22:22;;;;;;;20.48;2.20;;;;;;;;;;5076621;28;20083;-59
2021/04/06 13:24:49;;;;;;;19.92;2.60;;;;;;;;;;5078683;28;20028;-55
2021/04/06 13:27:16;;;;;;;20.45;2.30;;;;;;;;;;5093586;28;20046;-49
2021/04/06 13:29:44;;;;;;;18.90;2.33;;;;;;;;;;5093612;28;20475;-54
2021/04/06 13:32:11;;;;;;;14.50;2.20;;;;;;;;;;5092136;28;20375;-54
2021/04/06 13:34:38;;;;;;;22.70;2.60;;;;;;;;;;5094446;28;20088;-54
2021/04/06 13:37:05;;;;;;;21.48;2.20;;;;;;;;;;5085059;28;20017;-53
2021/04/06 13:39:32;;;;;;;15.70;2.97;;;;;;;;;;5073859;28;20028;-54
2021/04/06 13:42:00;;;;;;;33.33;3.15;;;;;;;;;;5072557;28;20016;-52
2021/04/06 13:44:27;;;;;;;33.63;3.30;;;;;;;;;;5072516;28;20021;-55
2021/04/06 13:46:54;;;;;;;39.95;4.72;;;;;;;;;;5073597;28;20108;-53
2021/04/06 13:49:21;;;;;;;31.95;2.90;;;;;;;;;;5072489;28;20043;-55
2021/04/06 13:51:48;;;;;;;25.27;3.08;;;;;;;;;;5072399;28;20021;-54
2021/04/06 13:54:15;;;;;;;27.77;3.08;;;;;;;;;;5069832;28;20039;-59
2021/04/06 13:56:43;;;;;;;29.30;2.67;;;;;;;;;;5072252;28;20058;-54
2021/04/06 13:59:10;;;;;;;26.83;2.75;;;;;;;;;;5073005;28;20025;-54
2021/04/06 14:01:37;;;;;;;24.20;2.88;;;;;;;;;;5073058;28;20028;-52
2021/04/06 14:04:04;;;;;;;26.05;2.60;;;;;;;;;;5073197;28;20028;-50
2021/04/06 14:06:31;;;;;;;32.70;3.17;;;;;;;;;;5068163;28;20048;-55
2021/04/06 14:08:58;;;;;;;32.70;3.20;;;;;;;;;;5073505;28;20036;-57
2021/04/06 14:11:25;;;;;;;34.13;3.00;;;;;;;;;;5072872;28;20035;-62
2021/04/06 14:13:52;;;;;;;31.27;2.50;;;;;;;;;;5072480;28;20021;-60
2021/04/06 14:16:19;;;;;;;40.25;4.00;;;;;;;;;;5070356;28;20450;-52
2021/04/06 14:18:46;;;;;;;24.65;2.97;;;;;;;;;;5068209;28;20016;-63
2021/04/06 14:21:13;;;;;;;49.72;3.60;;;;;;;;;;5070967;28;20070;-50
2021/04/06 14:23:42;;;;;;;57.80;4.90;;;;;;;;;;5070506;28;20089;-57
2021/04/06 14:26:09;;;;;;;46.28;3.95;;;;;;;;;;5070906;28;20016;-62
2021/04/06 14:28:38;;;;;;;35.70;4.60;;;;;;;;;;5071548;28;20057;-52
2021/04/06 14:31:05;;;;;;;33.58;4.55;;;;;;;;;;5070648;28;20136;-55
2021/04/06 14:33:32;;;;;;;28.23;3.88;;;;;;;;;;5072122;28;20460;-56
2021/04/06 14:35:59;;;;;;;44.15;4.22;;;;;;;;;;5072227;28;20028;-52
2021/04/06 14:38:27;;;;;;;34.38;4.10;;;;;;;;;;5072077;28;20147;-53
2021/04/06 14:40:54;;;;;;;42.47;5.00;;;;;;;;;;5072835;28;20028;-56
2021/04/06 14:43:30;;;;;;;45.20;4.88;;;;;;;;;;5082664;28;20020;-60
2021/04/06 14:46:01;;;;;;;32.08;4.18;;;;;;;;;;5071878;28;20075;-57
2021/04/06 14:48:32;;;;;;;27.15;3.97;;;;;;;;;;5076406;28;20483;-55